createdAt,value
2023-06-18T00:00:16.775Z,59.47
2023-06-18T00:02:22.000Z,61.73
2023-06-18T00:04:07.308Z,64.00
2023-06-18T00:05:54.943Z,64.21
2023-06-18T00:07:31.775Z,62.12
2023-06-18T00:09:06.888Z,60.02
2023-06-18T00:11:01.893Z,58.05
2023-06-18T00:12:42.821Z,58.09
2023-06-18T00:14:28.086Z,59.64
2023-06-18T00:16:13.119Z,61.60
2023-06-18T00:17:44.881Z,63.83
2023-06-18T00:19:23.522Z,64.35
2023-06-18T00:21:09.836Z,62.39
2023-06-18T00:22:32.897Z,60.30
2023-06-18T00:24:02.132Z,58.70
2023-06-18T00:25:47.485Z,57.88
2023-06-18T00:27:28.917Z,59.03
2023-06-18T00:29:05.252Z,60.70
2023-06-18T00:30:57.060Z,62.65
2023-06-18T00:32:31.128Z,64.36
2023-06-18T00:34:08.430Z,62.94
2023-06-18T00:35:54.234Z,60.82
2023-06-18T00:37:40.781Z,58.55
2023-06-18T00:39:17.814Z,57.64
2023-06-18T00:40:51.517Z,58.80
2023-06-18T00:42:36.577Z,60.77
2023-06-18T00:44:21.430Z,62.54
2023-06-18T00:46:07.011Z,64.14
2023-06-18T00:47:55.876Z,62.78
2023-06-18T00:49:36.881Z,60.30
2023-06-18T00:51:19.111Z,58.24
2023-06-18T00:53:05.382Z,57.76
2023-06-18T00:54:51.967Z,59.39
2023-06-18T00:56:27.520Z,61.31
2023-06-18T00:58:09.022Z,63.24
2023-06-18T00:59:33.703Z,64.60
2023-06-18T01:00:59.836Z,63.52
2023-06-18T01:02:40.114Z,61.56
2023-06-18T01:04:06.158Z,59.23
2023-06-18T01:05:52.262Z,57.81
2023-06-18T01:07:40.450Z,58.75
2023-06-18T01:09:33.836Z,60.78
2023-06-18T01:11:08.683Z,62.69
2023-06-18T01:12:42.054Z,64.53
2023-06-18T01:14:22.350Z,63.35
2023-06-18T01:16:06.864Z,61.06
2023-06-18T01:17:43.742Z,58.72
2023-06-18T01:19:17.053Z,57.68
2023-06-18T01:20:57.974Z,58.78
2023-06-18T01:22:31.808Z,60.39
2023-06-18T01:24:07.370Z,62.12
2023-06-18T01:26:01.327Z,64.19
2023-06-18T01:27:36.596Z,63.35
2023-06-18T01:29:11.678Z,60.97
2023-06-18T01:30:58.527Z,58.74
2023-06-18T01:32:34.572Z,57.50
2023-06-18T01:34:17.157Z,58.48
2023-06-18T01:35:52.847Z,60.26
2023-06-18T01:37:15.925Z,62.38
2023-06-18T01:39:05.955Z,64.61
2023-06-18T01:40:39.915Z,63.85
2023-06-18T01:42:13.236Z,61.75
2023-06-18T01:43:59.265Z,59.92
2023-06-18T01:45:25.670Z,58.25
2023-06-18T01:47:11.552Z,58.40
2023-06-18T01:48:36.838Z,59.91
2023-06-18T01:50:19.971Z,61.47
2023-06-18T01:51:56.721Z,63.53
2023-06-18T01:53:26.245Z,64.64
2023-06-18T01:55:02.549Z,63.33
2023-06-18T01:56:36.767Z,61.02
2023-06-18T01:58:21.644Z,59.21
2023-06-18T01:59:57.789Z,57.74
2023-06-18T02:01:22.038Z,58.65
2023-06-18T02:03:02.908Z,60.29
2023-06-18T02:04:27.258Z,62.08
2023-06-18T02:06:06.069Z,64.30
2023-06-18T02:07:47.741Z,64.39
2023-06-18T02:09:33.018Z,61.99
2023-06-18T02:11:16.813Z,59.83
2023-06-18T02:12:53.044Z,58.07
2023-06-18T02:14:27.522Z,58.31
2023-06-18T02:16:08.918Z,59.76
2023-06-18T02:17:45.148Z,62.21
2023-06-18T02:19:28.084Z,64.20
2023-06-18T02:21:13.703Z,63.73
2023-06-18T02:23:00.872Z,61.35
2023-06-18T02:24:37.294Z,59.34
2023-06-18T02:26:10.785Z,57.40
2023-06-18T02:27:52.369Z,58.16
2023-06-18T02:29:27.852Z,59.78
2023-06-18T02:31:19.257Z,61.88
2023-06-18T02:33:05.738Z,64.18
2023-06-18T02:34:54.970Z,63.89
2023-06-18T02:36:21.558Z,61.56
2023-06-18T02:37:56.314Z,59.52
2023-06-18T02:39:29.880Z,58.01
2023-06-18T02:40:57.558Z,58.54
2023-06-18T02:42:33.008Z,60.26
2023-06-18T02:44:14.571Z,61.94
2023-06-18T02:45:59.556Z,64.38
2023-06-18T02:47:29.143Z,63.59
2023-06-18T02:49:00.545Z,61.58
2023-06-18T02:50:34.582Z,59.78
2023-06-18T02:52:11.000Z,57.77
2023-06-18T02:54:04.844Z,58.11
2023-06-18T02:55:45.589Z,60.23
2023-06-18T02:57:30.943Z,62.14
2023-06-18T02:59:15.629Z,64.50
2023-06-18T03:00:46.609Z,63.39
2023-06-18T03:02:22.144Z,61.20
2023-06-18T03:03:55.999Z,59.64
2023-06-18T03:05:42.576Z,57.79
2023-06-18T03:07:12.981Z,58.37
2023-06-18T03:08:55.908Z,59.94
2023-06-18T03:10:29.424Z,62.10
2023-06-18T03:12:16.313Z,64.40
2023-06-18T03:14:05.585Z,63.97
2023-06-18T03:15:46.333Z,61.52
2023-06-18T03:17:20.476Z,59.61
2023-06-18T03:19:13.910Z,57.80
2023-06-18T03:20:53.821Z,58.29
2023-06-18T03:22:34.689Z,60.11
2023-06-18T03:24:24.141Z,62.06
2023-06-18T03:26:10.542Z,64.21
2023-06-18T03:28:04.086Z,63.32
2023-06-18T03:29:51.347Z,60.77
2023-06-18T03:31:36.968Z,58.54
2023-06-18T03:33:25.360Z,57.71
2023-06-18T03:35:15.912Z,59.22
2023-06-18T03:37:10.843Z,61.48
2023-06-18T03:38:58.860Z,63.65
2023-06-18T03:40:44.849Z,63.77
2023-06-18T03:42:20.014Z,61.60
2023-06-18T03:44:14.935Z,59.71
2023-06-18T03:45:51.402Z,57.65
2023-06-18T03:47:37.341Z,58.49
2023-06-18T03:49:13.464Z,60.20
2023-06-18T03:51:07.337Z,62.24
2023-06-18T03:53:03.208Z,64.16
2023-06-18T03:54:56.947Z,62.66
2023-06-18T03:56:38.412Z,60.05
2023-06-18T03:58:11.908Z,57.79
2023-06-18T03:59:54.039Z,57.91
2023-06-18T04:01:29.687Z,59.76
2023-06-18T04:03:11.487Z,61.35
2023-06-18T04:04:56.793Z,63.32
2023-06-18T04:06:28.618Z,64.24
2023-06-18T04:07:57.811Z,62.80
2023-06-18T04:09:31.633Z,60.54
2023-06-18T04:11:01.325Z,58.79
2023-06-18T04:12:46.813Z,57.71
2023-06-18T04:14:27.236Z,58.51
2023-06-18T04:16:21.063Z,61.10
2023-06-18T04:18:07.016Z,63.38
2023-06-18T04:20:01.806Z,64.40
2023-06-18T04:21:47.055Z,62.42
2023-06-18T04:23:28.495Z,60.27
2023-06-18T04:25:09.128Z,58.10
2023-06-18T04:26:42.828Z,57.95
2023-06-18T04:28:28.050Z,59.48
2023-06-18T04:30:13.853Z,60.91
2023-06-18T04:31:49.502Z,63.06
2023-06-18T04:33:23.273Z,63.91
2023-06-18T04:34:57.588Z,62.64
2023-06-18T04:36:42.836Z,60.15
2023-06-18T04:38:15.909Z,57.21
2023-06-18T04:39:50.150Z,57.45
2023-06-18T04:41:34.394Z,58.68
2023-06-18T04:43:22.660Z,60.38
2023-06-18T04:45:03.405Z,61.86
2023-06-18T04:46:54.274Z,63.63
2023-06-18T04:48:24.429Z,63.04
2023-06-18T04:50:17.488Z,60.72
2023-06-18T04:52:05.871Z,57.17
2023-06-18T04:53:30.551Z,57.05
2023-06-18T04:55:20.217Z,58.23
2023-06-18T04:56:53.900Z,59.94
2023-06-18T04:58:29.820Z,60.81
2023-06-18T05:00:10.700Z,62.42
2023-06-18T05:01:47.978Z,63.84
2023-06-18T05:03:22.103Z,63.35
2023-06-18T05:05:07.493Z,60.97
2023-06-18T05:06:44.716Z,58.58
2023-06-18T05:08:28.215Z,56.22
2023-06-18T05:10:21.997Z,57.48
2023-06-18T05:12:03.484Z,59.52
2023-06-18T05:13:36.897Z,61.70
2023-06-18T05:15:10.523Z,63.51
2023-06-18T05:16:40.864Z,63.70
2023-06-18T05:18:17.450Z,60.94
2023-06-18T05:19:51.056Z,57.94
2023-06-18T05:21:28.724Z,56.65
2023-06-18T05:23:23.308Z,58.15
2023-06-18T05:24:50.250Z,59.42
2023-06-18T05:26:35.571Z,60.64
2023-06-18T05:28:22.349Z,62.16
2023-06-18T05:29:55.821Z,64.01
2023-06-18T05:31:29.489Z,63.49
2023-06-18T05:33:09.776Z,61.06
2023-06-18T05:34:44.381Z,58.36
2023-06-18T05:36:17.802Z,56.64
2023-06-18T05:37:53.460Z,57.31
2023-06-18T05:39:29.839Z,58.58
2023-06-18T05:41:22.945Z,60.29
2023-06-18T05:43:10.801Z,61.76
2023-06-18T05:45:03.322Z,64.00
2023-06-18T05:46:36.996Z,63.42
2023-06-18T05:48:26.248Z,60.93
2023-06-18T05:50:02.929Z,58.00
2023-06-18T05:51:48.979Z,57.39
2023-06-18T05:53:14.652Z,58.26
2023-06-18T05:54:49.029Z,59.18
2023-06-18T05:56:10.849Z,60.75
2023-06-18T05:58:02.501Z,61.96
2023-06-18T05:59:55.872Z,63.48
2023-06-18T06:01:40.612Z,62.79
2023-06-18T06:03:25.906Z,60.06
2023-06-18T06:05:10.871Z,57.90
2023-06-18T06:06:52.379Z,57.80
2023-06-18T06:08:25.430Z,59.71
2023-06-18T06:10:07.570Z,61.20
2023-06-18T06:11:42.413Z,62.67
2023-06-18T06:13:22.282Z,64.43
2023-06-18T06:15:20.986Z,62.47
2023-06-18T06:17:08.865Z,59.98
2023-06-18T06:18:54.729Z,56.95
2023-06-18T06:20:30.427Z,56.62
2023-06-18T06:22:24.880Z,58.21
2023-06-18T06:24:10.577Z,60.57
2023-06-18T06:25:47.610Z,60.79
2023-06-18T06:27:28.775Z,61.00
2023-06-18T06:29:05.909Z,62.95
2023-06-18T06:30:51.847Z,63.66
2023-06-18T06:32:37.173Z,61.75
2023-06-18T06:34:22.606Z,59.37
2023-06-18T06:35:56.518Z,55.23
2023-06-18T06:37:40.022Z,55.37
2023-06-18T06:39:25.343Z,57.44
2023-06-18T06:40:59.195Z,59.27
2023-06-18T06:42:39.825Z,59.65
2023-06-18T06:44:37.669Z,61.28
2023-06-18T06:47:01.752Z,62.34
2023-06-18T06:49:08.395Z,63.09
2023-06-18T06:51:23.606Z,60.92
2023-06-18T06:53:11.770Z,57.07
2023-06-18T06:54:53.072Z,54.94
2023-06-18T06:56:33.595Z,55.20
2023-06-18T06:58:08.648Z,56.47
2023-06-18T06:59:42.274Z,58.89
2023-06-18T07:01:25.067Z,58.66
2023-06-18T07:03:10.750Z,59.57
2023-06-18T07:04:59.040Z,59.88
2023-06-18T07:06:39.709Z,60.20
2023-06-18T07:08:27.485Z,60.31
2023-06-18T07:10:01.514Z,60.70
2023-06-18T07:11:46.677Z,61.37
2023-06-18T07:13:22.727Z,60.70
2023-06-18T07:15:07.656Z,60.78
2023-06-18T07:16:41.169Z,61.22
2023-06-18T07:18:16.773Z,61.31
2023-06-18T07:20:10.904Z,61.91
2023-06-18T07:21:46.850Z,62.86
2023-06-18T07:23:31.887Z,61.06
2023-06-18T07:25:07.151Z,57.32
2023-06-18T07:26:42.817Z,54.68
2023-06-18T07:28:27.626Z,54.94
2023-06-18T07:30:21.503Z,55.92
2023-06-18T07:31:58.336Z,56.66
2023-06-18T07:33:43.021Z,56.77
2023-06-18T07:35:24.873Z,57.79
2023-06-18T07:36:58.658Z,57.49
2023-06-18T07:38:20.274Z,57.59
2023-06-18T07:39:55.271Z,57.98
2023-06-18T07:41:40.425Z,57.09
2023-06-18T07:43:23.862Z,57.43
2023-06-18T07:44:59.154Z,57.15
2023-06-18T07:46:44.379Z,57.59
2023-06-18T07:48:29.339Z,56.79
2023-06-18T07:50:07.252Z,56.07
2023-06-18T07:51:52.606Z,56.94
2023-06-18T07:53:33.369Z,56.55
2023-06-18T07:55:14.365Z,56.42
2023-06-18T07:56:47.744Z,55.83
2023-06-18T07:58:37.851Z,56.13
2023-06-18T08:00:23.238Z,57.41
2023-06-18T08:01:57.433Z,57.16
2023-06-18T08:03:30.605Z,57.69
2023-06-18T08:05:06.822Z,58.33
2023-06-18T08:06:54.404Z,58.70
2023-06-18T08:08:30.046Z,59.29
2023-06-18T08:10:23.140Z,58.43
2023-06-18T08:12:18.899Z,58.45
2023-06-18T08:14:03.802Z,58.21
2023-06-18T08:15:39.890Z,58.63
2023-06-18T08:17:06.466Z,57.89
2023-06-18T08:18:39.705Z,57.01
2023-06-18T08:20:13.059Z,58.23
2023-06-18T08:21:54.366Z,58.34
2023-06-18T08:23:27.848Z,58.29
2023-06-18T08:25:14.017Z,57.52
2023-06-18T08:26:59.329Z,57.43
2023-06-18T08:28:45.422Z,57.26
2023-06-18T08:30:29.983Z,57.39
2023-06-18T08:32:05.755Z,56.75
2023-06-18T08:33:36.821Z,56.39
2023-06-18T08:35:02.260Z,57.01
2023-06-18T08:36:47.786Z,56.75
2023-06-18T08:38:33.081Z,56.90
2023-06-18T08:40:13.450Z,57.85
2023-06-18T08:41:47.157Z,58.24
2023-06-18T08:43:29.614Z,57.94
2023-06-18T08:45:23.543Z,58.15
2023-06-18T08:47:18.878Z,58.31
2023-06-18T08:49:02.801Z,56.75
2023-06-18T08:50:47.805Z,55.85
2023-06-18T08:52:37.877Z,56.13
2023-06-18T08:54:02.244Z,57.06
2023-06-18T08:55:47.215Z,56.10
2023-06-18T08:57:32.295Z,56.04
2023-06-18T08:59:07.912Z,56.16
2023-06-18T09:00:53.245Z,56.93
2023-06-18T09:02:38.380Z,55.83
2023-06-18T09:04:23.782Z,54.64
2023-06-18T09:06:17.891Z,54.60
2023-06-18T09:07:53.919Z,54.82
2023-06-18T09:09:29.544Z,55.04
2023-06-18T09:11:14.788Z,54.71
2023-06-18T09:13:08.023Z,55.03
2023-06-18T09:14:41.781Z,54.56
2023-06-18T09:16:14.789Z,56.14
2023-06-18T09:18:00.996Z,54.30
2023-06-18T09:19:25.189Z,54.12
2023-06-18T09:20:58.904Z,54.69
2023-06-18T09:22:32.332Z,55.07
2023-06-18T09:24:18.336Z,55.51
2023-06-18T09:25:40.391Z,55.40
2023-06-18T09:27:15.860Z,54.28
2023-06-18T09:28:57.045Z,53.97
2023-06-18T09:30:33.018Z,53.01
2023-06-18T09:32:04.366Z,53.71
2023-06-18T09:33:37.765Z,52.88
2023-06-18T09:35:31.886Z,51.85
2023-06-18T09:37:07.424Z,51.58
2023-06-18T09:38:40.811Z,52.62
2023-06-18T09:40:21.270Z,52.47
2023-06-18T09:41:57.585Z,52.74
2023-06-18T09:43:19.024Z,51.67
2023-06-18T09:44:52.637Z,51.80
2023-06-18T09:46:35.035Z,52.35
2023-06-18T09:48:04.375Z,50.08
2023-06-18T09:49:48.759Z,50.81
2023-06-18T09:51:36.634Z,51.03
2023-06-18T09:53:22.109Z,50.72
2023-06-18T09:55:07.933Z,49.32
2023-06-18T09:56:32.246Z,49.66
2023-06-18T09:57:58.732Z,48.70
2023-06-18T09:59:32.293Z,48.71
2023-06-18T10:00:56.108Z,48.84
2023-06-18T10:02:40.787Z,49.17
2023-06-18T10:04:14.103Z,48.32
2023-06-18T10:05:43.286Z,48.01
2023-06-18T10:07:18.331Z,47.53
2023-06-18T10:08:54.582Z,48.15
2023-06-18T10:10:28.048Z,47.96
2023-06-18T10:12:08.734Z,48.90
2023-06-18T10:13:42.791Z,47.65
2023-06-18T10:15:30.424Z,47.14
2023-06-18T10:17:04.269Z,46.20
2023-06-18T10:18:28.123Z,47.21
2023-06-18T10:20:05.243Z,46.32
2023-06-18T10:21:51.282Z,47.33
2023-06-18T10:23:25.257Z,48.20
2023-06-18T10:25:10.212Z,46.24
2023-06-18T10:26:54.279Z,47.18
2023-06-18T10:28:27.899Z,46.42
2023-06-18T10:30:08.754Z,45.98
2023-06-18T10:31:35.329Z,46.50
2023-06-18T10:33:20.157Z,46.42
2023-06-18T10:35:11.717Z,45.96
2023-06-18T10:36:45.462Z,48.82
2023-06-18T10:38:07.071Z,48.58
2023-06-18T10:39:52.545Z,45.74
2023-06-18T10:41:28.164Z,45.37
2023-06-18T10:43:03.925Z,46.58
2023-06-18T10:44:55.584Z,47.11
2023-06-18T10:46:40.917Z,47.97
2023-06-18T10:48:31.729Z,46.36
2023-06-18T10:50:25.287Z,45.52
2023-06-18T10:52:17.686Z,45.70
2023-06-18T10:53:44.416Z,45.10
2023-06-18T10:55:31.471Z,46.12
2023-06-18T10:57:05.140Z,44.62
2023-06-18T10:58:40.689Z,44.31
2023-06-18T11:00:32.777Z,44.72
2023-06-18T11:02:13.466Z,45.12
2023-06-18T11:03:54.590Z,46.05
2023-06-18T11:05:20.862Z,46.11
2023-06-18T11:07:15.902Z,46.97
2023-06-18T11:08:56.320Z,47.19
2023-06-18T11:10:30.082Z,46.50
2023-06-18T11:12:03.340Z,47.07
2023-06-18T11:13:37.396Z,47.06
2023-06-18T11:15:10.777Z,47.43
2023-06-18T11:16:42.136Z,47.99
2023-06-18T11:18:26.990Z,48.78
2023-06-18T11:20:13.161Z,49.33
2023-06-18T11:21:47.078Z,50.14
2023-06-18T11:23:20.503Z,51.72
2023-06-18T11:24:53.916Z,54.65
2023-06-18T11:26:28.353Z,57.15
2023-06-18T11:28:04.593Z,59.31
2023-06-18T11:29:58.929Z,59.80
2023-06-18T11:31:44.870Z,63.71
2023-06-18T11:33:20.496Z,62.88
2023-06-18T11:45:18.846Z,60.59
2023-06-18T11:47:05.607Z,59.52
2023-06-18T11:48:39.612Z,58.59
2023-06-18T11:50:25.324Z,60.16
2023-06-18T11:52:14.453Z,63.14
2023-06-18T11:53:55.103Z,65.77
2023-06-18T11:55:31.294Z,65.38
2023-06-18T11:57:16.844Z,63.48
2023-06-18T11:58:56.032Z,61.85
2023-06-18T12:00:30.813Z,61.29
2023-06-18T12:01:52.894Z,60.09
2023-06-18T12:05:49.882Z,58.48
2023-06-18T12:07:31.132Z,61.14
2023-06-18T12:09:19.757Z,64.59
2023-06-18T12:11:05.155Z,64.97
2023-06-18T12:12:59.548Z,63.17
2023-06-18T12:14:44.398Z,61.57
2023-06-18T12:16:38.560Z,60.08
2023-06-18T12:18:33.551Z,59.26
2023-06-18T12:20:27.536Z,58.86
2023-06-18T12:22:03.322Z,61.13
2023-06-18T12:23:53.590Z,63.81
2023-06-18T12:25:47.387Z,65.16
2023-06-18T12:27:41.545Z,63.45
2023-06-18T12:29:35.109Z,62.12
2023-06-18T12:31:12.713Z,59.67
2023-06-18T12:32:46.155Z,57.96
2023-06-18T12:34:23.839Z,57.94
2023-06-18T12:36:14.070Z,61.66
2023-06-18T12:37:55.575Z,65.11
2023-06-18T12:39:42.975Z,66.11
2023-06-18T12:41:28.698Z,63.97
2023-06-18T12:42:57.999Z,62.70
2023-06-18T12:44:31.874Z,57.65
2023-06-18T12:46:03.110Z,56.07
2023-06-18T12:47:57.558Z,57.83
2023-06-18T12:49:51.576Z,64.21
2023-06-18T12:51:46.580Z,62.06
2023-06-18T12:53:39.648Z,60.58
2023-06-18T12:55:27.474Z,57.74
2023-06-18T12:57:01.345Z,58.34
2023-06-18T12:58:47.562Z,61.28
2023-06-18T13:00:42.540Z,64.06
2023-06-18T13:02:17.138Z,62.15
2023-06-18T13:04:02.529Z,59.47
2023-06-18T13:05:38.813Z,55.88
2023-06-18T13:07:12.232Z,55.83
2023-06-18T13:08:41.553Z,58.43
2023-06-18T13:10:26.700Z,59.87
2023-06-18T13:12:00.790Z,61.80
2023-06-18T13:13:34.339Z,62.31
2023-06-18T13:15:07.666Z,59.05
2023-06-18T13:17:04.010Z,54.85
2023-06-18T13:18:47.561Z,56.37
2023-06-18T13:20:28.603Z,57.09
2023-06-18T13:22:04.783Z,58.31
2023-06-18T13:23:58.361Z,59.43
2023-06-18T13:25:41.544Z,62.61
2023-06-18T13:27:31.921Z,62.93
2023-06-18T13:29:17.112Z,59.51
2023-06-18T13:30:58.049Z,59.01
2023-06-18T13:32:52.387Z,56.72
2023-06-18T13:34:47.561Z,58.27
2023-06-18T13:36:23.080Z,59.17
2023-06-18T13:38:12.123Z,59.86
2023-06-18T13:39:53.048Z,60.13
2023-06-18T13:41:42.004Z,62.71
2023-06-18T13:43:15.376Z,61.23
2023-06-18T13:45:00.413Z,59.91
2023-06-18T13:46:54.261Z,56.74
2023-06-18T13:48:49.556Z,55.56
2023-06-18T13:50:35.229Z,57.07
2023-06-18T13:52:08.760Z,60.65
2023-06-18T13:53:42.061Z,60.46
2023-06-18T13:55:27.265Z,61.21
2023-06-18T13:57:00.731Z,62.69
2023-06-18T13:58:41.595Z,62.69
2023-06-18T14:00:34.653Z,61.06
2023-06-18T14:02:27.926Z,57.33
2023-06-18T14:04:13.922Z,55.72
2023-06-18T14:05:59.027Z,55.52
2023-06-18T14:07:33.632Z,56.84
2023-06-18T14:09:20.136Z,58.66
2023-06-18T14:10:56.831Z,58.89
2023-06-18T14:12:47.224Z,60.56
2023-06-18T14:14:29.541Z,60.74
2023-06-18T14:16:15.222Z,63.70
2023-06-18T14:18:00.219Z,62.69
2023-06-18T14:19:45.468Z,60.47
2023-06-18T14:21:23.296Z,57.05
2023-06-18T14:23:08.562Z,57.76
2023-06-18T14:24:54.900Z,57.67
2023-06-18T14:26:36.115Z,58.09
2023-06-18T14:28:31.573Z,58.45
2023-06-18T14:30:18.659Z,60.77
2023-06-18T14:31:52.503Z,61.51
2023-06-18T14:33:37.572Z,60.90
2023-06-18T14:35:13.701Z,61.41
2023-06-18T14:36:58.693Z,63.06
2023-06-18T14:38:27.978Z,61.23
2023-06-18T14:39:50.164Z,59.24
2023-06-18T14:41:19.134Z,57.02
2023-06-18T14:43:01.575Z,54.68
2023-06-18T14:44:49.589Z,54.98
2023-06-18T14:46:30.625Z,54.93
2023-06-18T14:48:15.565Z,56.12
2023-06-18T14:50:05.906Z,56.64
2023-06-18T14:51:39.287Z,56.82
2023-06-18T14:53:17.618Z,57.28
2023-06-18T14:54:51.070Z,57.08
2023-06-18T14:56:38.361Z,58.61
2023-06-18T14:58:11.649Z,59.44
2023-06-18T14:59:56.628Z,61.36
2023-06-18T15:01:20.841Z,60.74
2023-06-18T15:03:06.407Z,60.68
2023-06-18T15:04:50.543Z,61.67
2023-06-18T15:06:40.785Z,62.52
2023-06-18T15:08:35.630Z,63.38
2023-06-18T15:10:22.536Z,61.17
2023-06-18T15:11:58.746Z,59.20
2023-06-18T15:13:40.283Z,57.24
2023-06-18T15:15:04.385Z,57.04
2023-06-18T15:16:26.635Z,57.67
2023-06-18T15:18:07.898Z,60.23
2023-06-18T15:19:52.586Z,61.32
2023-06-18T15:21:24.026Z,61.43
2023-06-18T15:22:57.530Z,61.56
2023-06-18T15:24:33.835Z,63.43
2023-06-18T15:26:07.446Z,62.70
2023-06-18T15:27:40.798Z,60.91
2023-06-18T15:29:28.983Z,57.75
2023-06-18T15:31:15.216Z,58.09
2023-06-18T15:33:00.707Z,58.90
2023-06-18T15:34:41.671Z,59.44
2023-06-18T15:36:15.221Z,60.86
2023-06-18T15:38:02.573Z,62.04
2023-06-18T15:39:48.679Z,63.09
2023-06-18T15:41:34.852Z,62.44
2023-06-18T15:43:15.994Z,59.26
2023-06-18T15:44:51.457Z,57.59
2023-06-18T15:46:39.634Z,57.42
2023-06-18T15:48:26.945Z,59.00
2023-06-18T15:50:12.678Z,60.86
2023-06-18T15:51:41.869Z,61.17
2023-06-18T15:53:30.320Z,63.44
2023-06-18T15:55:03.968Z,63.89
2023-06-18T15:56:44.972Z,61.96
2023-06-18T15:58:11.445Z,57.68
2023-06-18T15:59:58.662Z,55.53
2023-06-18T16:01:33.438Z,56.03
2023-06-18T16:03:14.671Z,58.39
2023-06-18T16:05:01.586Z,59.17
2023-06-18T16:06:44.553Z,60.38
2023-06-18T16:08:17.809Z,61.60
2023-06-18T16:09:56.056Z,61.90
2023-06-18T16:11:43.408Z,62.33
2023-06-18T16:13:37.070Z,61.36
2023-06-18T16:15:17.850Z,59.00
2023-06-18T16:16:49.048Z,56.45
2023-06-18T16:18:22.793Z,56.43
2023-06-18T16:20:04.812Z,57.42
2023-06-18T16:21:38.636Z,58.63
2023-06-18T16:23:24.065Z,59.63
2023-06-18T16:24:57.809Z,61.08
2023-06-18T16:26:31.629Z,61.59
2023-06-18T16:28:17.638Z,62.57
2023-06-18T16:30:03.209Z,63.63
2023-06-18T16:31:50.169Z,60.97
2023-06-18T16:33:14.572Z,58.00
2023-06-18T16:34:59.363Z,56.41
2023-06-18T16:36:33.584Z,55.80
2023-06-18T16:38:04.170Z,57.08
2023-06-18T16:39:28.739Z,57.89
2023-06-18T16:41:04.471Z,58.50
2023-06-18T16:42:26.952Z,59.33
2023-06-18T16:44:00.648Z,59.84
2023-06-18T16:45:43.626Z,60.52
2023-06-18T16:47:19.281Z,61.95
2023-06-18T16:49:04.498Z,62.51
2023-06-18T16:50:45.396Z,63.01
2023-06-18T16:52:30.501Z,60.76
2023-06-18T16:54:04.045Z,57.19
2023-06-18T16:55:58.591Z,56.43
2023-06-18T16:57:33.716Z,57.09
2023-06-18T16:59:14.374Z,57.89
2023-06-18T17:01:00.129Z,59.34
2023-06-18T17:02:34.341Z,59.95
2023-06-18T17:04:10.162Z,60.72
2023-06-18T17:05:36.269Z,61.22
2023-06-18T17:07:09.304Z,62.14
2023-06-18T17:08:43.033Z,62.96
2023-06-18T17:10:37.612Z,62.29
2023-06-18T17:12:06.613Z,58.97
2023-06-18T17:13:47.680Z,56.44
2023-06-18T17:15:28.824Z,56.23
2023-06-18T17:17:09.795Z,57.62
2023-06-18T17:18:45.797Z,59.15
2023-06-18T17:20:09.391Z,60.57
2023-06-18T17:21:45.606Z,60.93
2023-06-18T17:23:17.000Z,61.07
2023-06-18T17:24:50.507Z,62.66
2023-06-18T17:26:35.542Z,64.24
2023-06-18T17:28:04.748Z,63.42
2023-06-18T17:29:41.707Z,61.19
2023-06-18T17:31:03.840Z,58.99
2023-06-18T17:32:38.110Z,57.39
2023-06-18T17:34:24.478Z,57.56
2023-06-18T17:36:19.605Z,58.04
2023-06-18T17:37:53.929Z,59.90
2023-06-18T17:39:18.253Z,61.10
2023-06-18T17:41:03.629Z,62.92
2023-06-18T17:42:42.018Z,63.46
2023-06-18T17:44:18.779Z,60.90
2023-06-18T17:46:12.549Z,58.09
2023-06-18T17:47:58.219Z,57.10
2023-06-18T17:49:38.915Z,58.15
2023-06-18T17:51:33.623Z,60.08
2023-06-18T17:53:27.606Z,62.12
2023-06-18T17:55:12.423Z,63.06
2023-06-18T17:56:47.779Z,62.11
2023-06-18T17:58:33.014Z,59.90
2023-06-18T18:00:02.373Z,57.18
2023-06-18T18:01:38.060Z,57.04
2023-06-18T18:03:11.888Z,58.25
2023-06-18T18:04:47.382Z,60.04
2023-06-18T18:06:21.612Z,61.52
2023-06-18T18:07:57.506Z,62.63
2023-06-18T18:09:42.617Z,63.75
2023-06-18T18:11:27.869Z,62.18
2023-06-18T18:13:04.750Z,59.82
2023-06-18T18:14:50.931Z,57.58
2023-06-18T18:16:25.250Z,57.13
2023-06-18T18:18:10.609Z,58.42
2023-06-18T18:19:56.007Z,60.01
2023-06-18T18:21:36.911Z,61.07
2023-06-18T18:23:05.745Z,61.90
2023-06-18T18:24:39.286Z,62.81
2023-06-18T18:27:42.805Z,62.54
2023-06-18T18:29:37.662Z,60.92
2023-06-18T18:31:14.189Z,59.38
2023-06-18T18:32:48.109Z,57.45
2023-06-18T18:34:21.597Z,58.13
2023-06-18T18:35:54.969Z,59.76
2023-06-18T18:37:28.724Z,61.16
2023-06-18T18:39:13.618Z,62.13
2023-06-18T18:40:54.544Z,63.54
2023-06-18T18:42:28.388Z,63.15
2023-06-18T18:44:01.956Z,61.18
2023-06-18T18:45:42.815Z,59.25
2023-06-18T18:47:27.726Z,57.74
2023-06-18T18:49:12.679Z,58.37
2023-06-18T18:50:57.750Z,59.91
2023-06-18T18:52:40.521Z,61.07
2023-06-18T18:54:21.778Z,62.36
2023-06-18T18:55:56.711Z,64.19
2023-06-18T18:57:33.490Z,63.74
2023-06-18T18:59:22.041Z,61.34
2023-06-18T19:00:57.518Z,59.31
2023-06-18T19:02:19.765Z,58.05
2023-06-18T19:04:05.120Z,58.97
2023-06-18T19:05:26.699Z,60.82
2023-06-18T19:07:11.867Z,62.75
2023-06-18T19:08:45.799Z,64.64
2023-06-18T19:10:15.247Z,63.67
2023-06-18T19:12:00.738Z,61.84
2023-06-18T19:13:34.083Z,60.04
2023-06-18T19:15:18.905Z,58.40
2023-06-18T19:17:04.019Z,58.23
2023-06-18T19:18:51.159Z,59.63
2023-06-18T19:20:32.704Z,61.48
2023-06-18T19:22:06.304Z,63.09
2023-06-18T19:23:40.102Z,63.89
2023-06-18T19:25:23.643Z,62.50
2023-06-18T19:27:04.831Z,59.91
2023-06-18T19:28:48.641Z,57.87
2023-06-18T19:30:33.614Z,57.83
2023-06-18T19:32:14.364Z,59.52
2023-06-18T19:33:59.660Z,61.57
2023-06-18T19:35:45.034Z,63.81
2023-06-18T19:37:29.788Z,63.89
2023-06-18T19:39:11.073Z,62.13
2023-06-18T19:40:37.642Z,60.22
2023-06-18T19:41:59.528Z,58.61
2023-06-18T19:43:41.131Z,57.69
2023-06-18T19:45:15.476Z,58.90
2023-06-18T19:46:47.454Z,60.65
2023-06-18T19:48:23.217Z,62.46
2023-06-18T19:49:58.630Z,64.25
2023-06-18T19:51:32.748Z,63.50
2023-06-18T19:53:03.794Z,61.06
2023-06-18T19:54:48.065Z,59.58
2023-06-18T19:56:42.690Z,57.91
2023-06-18T19:58:18.068Z,58.80
2023-06-18T20:00:03.214Z,60.69
2023-06-18T20:01:55.774Z,62.46
2023-06-18T20:03:50.694Z,64.11
2023-06-18T20:05:44.167Z,62.39
2023-06-18T20:07:29.638Z,59.92
2023-06-18T20:09:24.075Z,58.21
2023-06-18T20:10:57.358Z,58.91
2023-06-18T20:12:33.640Z,60.56
2023-06-18T20:14:14.947Z,62.42
2023-06-18T20:15:57.262Z,64.33
2023-06-18T20:17:43.869Z,63.45
2023-06-18T20:19:17.924Z,61.19
2023-06-18T20:21:02.427Z,59.55
2023-06-18T20:22:50.491Z,57.84
2023-06-18T20:24:32.548Z,59.12
2023-06-18T20:26:17.579Z,60.98
2023-06-18T20:28:01.503Z,62.83
2023-06-18T20:29:42.781Z,64.02
2023-06-18T20:31:22.797Z,62.42
2023-06-18T20:32:47.170Z,60.42
2023-06-18T20:34:09.209Z,58.93
2023-06-18T20:35:33.745Z,57.76
2023-06-18T20:37:06.964Z,58.67
2023-06-18T20:38:40.475Z,60.36
2023-06-18T20:40:09.384Z,61.83
2023-06-18T20:41:43.525Z,64.04
2023-06-18T20:43:07.497Z,64.23
2023-06-18T20:44:43.712Z,62.71
2023-06-18T20:46:29.464Z,60.41
2023-06-18T20:48:03.133Z,58.32
2023-06-18T20:49:37.684Z,57.95
2023-06-18T20:51:22.604Z,59.38
2023-06-18T20:53:03.593Z,61.18
2023-06-18T20:54:42.237Z,62.88
2023-06-18T20:56:15.923Z,64.24
2023-06-18T20:58:00.929Z,62.73
2023-06-18T20:59:46.514Z,60.51
2023-06-18T21:01:41.770Z,58.20
2023-06-18T21:03:28.527Z,57.91
2023-06-18T21:05:02.546Z,59.37
2023-06-18T21:06:36.438Z,61.21
2023-06-18T21:08:10.368Z,62.90
2023-06-18T21:10:04.133Z,64.17
2023-06-18T21:11:28.752Z,62.59
2023-06-18T21:12:58.463Z,60.56
2023-06-18T21:14:43.916Z,58.87
2023-06-18T21:16:15.748Z,57.52
2023-06-18T21:17:51.297Z,58.49
2023-06-18T21:19:25.079Z,60.08
2023-06-18T21:20:58.848Z,62.02
2023-06-18T21:22:35.386Z,63.92
2023-06-18T21:23:59.343Z,63.85
2023-06-18T21:25:21.883Z,62.31
2023-06-18T21:26:50.793Z,60.34
2023-06-18T21:28:25.131Z,58.52
2023-06-18T21:29:58.633Z,57.84
2023-06-18T21:31:44.005Z,59.15
2023-06-18T21:33:37.530Z,61.28
2023-06-18T21:35:31.747Z,63.65
2023-06-18T21:37:16.989Z,64.15
2023-06-18T21:39:02.050Z,62.15
2023-06-18T21:40:56.800Z,60.17
2023-06-18T21:42:26.432Z,58.24
2023-06-18T21:44:12.158Z,58.18
2023-06-18T21:45:57.710Z,59.76